sensor_id;sensor_type;location;lat;lon;timestamp;P1;durP1;ratioP1;P2;durP2;ratioP2
44508;SDS011;30214;52.246;14.408;2023-05-10T00:01:09;8.05;;;4.72;;
44508;SDS011;30214;52.246;14.408;2023-05-10T00:03:36;7.25;;;4.45;;
44508;SDS011;30214;52.246;14.408;2023-05-10T00:06:03;9.75;;;4.63;;
44508;SDS011;30214;52.246;14.408;2023-05-10T00:08:30;10.15;;;4.40;;
44508;SDS011;30214;52.246;14.408;2023-05-10T00:10:57;9.60;;;4.80;;
44508;SDS011;30214;52.246;14.408;2023-05-10T00:13:27;9.43;;;5.25;;
44508;SDS011;30214;52.246;14.408;2023-05-10T00:15:54;7.35;;;4.57;;
44508;SDS011;30214;52.246;14.408;2023-05-10T00:18:23;7.38;;;4.25;;
44508;SDS011;30214;52.246;14.408;2023-05-10T00:20:50;9.07;;;4.50;;
44508;SDS011;30214;52.246;14.408;2023-05-10T00:23:17;9.10;;;4.75;;
44508;SDS011;30214;52.246;14.408;2023-05-10T00:25:44;8.25;;;4.82;;
44508;SDS011;30214;52.246;14.408;2023-05-10T00:28:11;7.53;;;4.88;;
44508;SDS011;30214;52.246;14.408;2023-05-10T00:30:38;9.65;;;4.72;;
44508;SDS011;30214;52.246;14.408;2023-05-10T00:33:05;10.27;;;4.90;;
44508;SDS011;30214;52.246;14.408;2023-05-10T00:35:34;12.45;;;4.50;;
44508;SDS011;30214;52.246;14.408;2023-05-10T00:38:01;10.38;;;4.57;;
44508;SDS011;30214;52.246;14.408;2023-05-10T00:40:28;10.45;;;4.50;;
44508;SDS011;30214;52.246;14.408;2023-05-10T00:43:00;10.38;;;4.63;;
44508;SDS011;30214;52.246;14.408;2023-05-10T00:45:27;10.40;;;4.72;;
44508;SDS011;30214;52.246;14.408;2023-05-10T00:47:54;13.68;;;5.15;;
44508;SDS011;30214;52.246;14.408;2023-05-10T00:50:21;8.90;;;4.32;;
44508;SDS011;30214;52.246;14.408;2023-05-10T00:52:49;7.70;;;4.45;;
44508;SDS011;30214;52.246;14.408;2023-05-10T00:55:17;8.65;;;4.55;;
44508;SDS011;30214;52.246;14.408;2023-05-10T00:57:44;11.95;;;5.05;;
44508;SDS011;30214;52.246;14.408;2023-05-10T01:00:12;8.75;;;4.75;;
44508;SDS011;30214;52.246;14.408;2023-05-10T01:02:43;12.15;;;4.90;;
44508;SDS011;30214;52.246;14.408;2023-05-10T01:05:11;8.57;;;4.20;;
44508;SDS011;30214;52.246;14.408;2023-05-10T01:07:38;10.30;;;4.93;;
44508;SDS011;30214;52.246;14.408;2023-05-10T01:10:08;9.18;;;4.97;;
44508;SDS011;30214;52.246;14.408;2023-05-10T01:12:37;6.78;;;4.22;;
44508;SDS011;30214;52.246;14.408;2023-05-10T01:15:07;11.90;;;4.53;;
44508;SDS011;30214;52.246;14.408;2023-05-10T01:17:36;10.45;;;4.78;;
44508;SDS011;30214;52.246;14.408;2023-05-10T01:20:07;8.80;;;4.80;;
44508;SDS011;30214;52.246;14.408;2023-05-10T01:22:43;13.00;;;4.93;;
44508;SDS011;30214;52.246;14.408;2023-05-10T01:28:42;12.52;;;5.30;;
44508;SDS011;30214;52.246;14.408;2023-05-10T01:31:35;10.02;;;5.30;;
44508;SDS011;30214;52.246;14.408;2023-05-10T01:34:39;11.98;;;5.10;;
44508;SDS011;30214;52.246;14.408;2023-05-10T01:37:15;11.35;;;5.22;;
44508;SDS011;30214;52.246;14.408;2023-05-10T01:39:50;18.40;;;5.75;;
44508;SDS011;30214;52.246;14.408;2023-05-10T01:42:28;12.30;;;5.25;;
44508;SDS011;30214;52.246;14.408;2023-05-10T01:45:05;11.75;;;4.88;;
44508;SDS011;30214;52.246;14.408;2023-05-10T01:47:43;13.90;;;5.35;;
44508;SDS011;30214;52.246;14.408;2023-05-10T01:50:15;10.25;;;4.65;;
44508;SDS011;30214;52.246;14.408;2023-05-10T01:52:47;11.43;;;4.72;;
44508;SDS011;30214;52.246;14.408;2023-05-10T01:55:21;13.85;;;4.97;;
44508;SDS011;30214;52.246;14.408;2023-05-10T01:57:52;8.27;;;5.07;;
44508;SDS011;30214;52.246;14.408;2023-05-10T02:00:28;8.82;;;4.88;;
44508;SDS011;30214;52.246;14.408;2023-05-10T02:02:58;6.90;;;4.60;;
44508;SDS011;30214;52.246;14.408;2023-05-10T02:05:30;12.18;;;4.93;;
44508;SDS011;30214;52.246;14.408;2023-05-10T02:07:59;7.70;;;5.15;;
44508;SDS011;30214;52.246;14.408;2023-05-10T02:10:28;8.65;;;4.53;;
44508;SDS011;30214;52.246;14.408;2023-05-10T02:12:58;9.27;;;5.18;;
44508;SDS011;30214;52.246;14.408;2023-05-10T02:15:27;11.57;;;5.00;;
44508;SDS011;30214;52.246;14.408;2023-05-10T02:17:57;9.52;;;4.75;;
44508;SDS011;30214;52.246;14.408;2023-05-10T02:20:26;8.75;;;4.75;;
44508;SDS011;30214;52.246;14.408;2023-05-10T02:22:54;9.43;;;4.85;;
44508;SDS011;30214;52.246;14.408;2023-05-10T02:25:23;8.07;;;4.57;;
44508;SDS011;30214;52.246;14.408;2023-05-10T02:27:53;8.80;;;4.40;;
44508;SDS011;30214;52.246;14.408;2023-05-10T02:30:22;9.52;;;4.78;;
44508;SDS011;30214;52.246;14.408;2023-05-10T02:32:50;10.57;;;4.28;;
44508;SDS011;30214;52.246;14.408;2023-05-10T02:35:20;8.48;;;4.25;;
44508;SDS011;30214;52.246;14.408;2023-05-10T02:37:48;11.82;;;4.78;;
44508;SDS011;30214;52.246;14.408;2023-05-10T02:40:16;10.63;;;4.70;;
44508;SDS011;30214;52.246;14.408;2023-05-10T02:42:47;9.35;;;4.93;;
44508;SDS011;30214;52.246;14.408;2023-05-10T02:45:29;12.07;;;5.15;;
44508;SDS011;30214;52.246;14.408;2023-05-10T02:47:58;8.73;;;4.85;;
44508;SDS011;30214;52.246;14.408;2023-05-10T02:50:27;12.77;;;4.93;;
44508;SDS011;30214;52.246;14.408;2023-05-10T02:53:01;11.95;;;4.55;;
44508;SDS011;30214;52.246;14.408;2023-05-10T02:55:37;11.60;;;5.05;;
44508;SDS011;30214;52.246;14.408;2023-05-10T02:58:07;12.73;;;5.78;;
44508;SDS011;30214;52.246;14.408;2023-05-10T03:00:34;12.15;;;5.28;;
44508;SDS011;30214;52.246;14.408;2023-05-10T03:03:01;12.35;;;4.47;;
44508;SDS011;30214;52.246;14.408;2023-05-10T03:05:30;15.75;;;6.35;;
44508;SDS011;30214;52.246;14.408;2023-05-10T03:08:00;11.30;;;5.35;;
44508;SDS011;30214;52.246;14.408;2023-05-10T03:10:29;10.10;;;5.45;;
44508;SDS011;30214;52.246;14.408;2023-05-10T03:13:01;12.00;;;5.30;;
44508;SDS011;30214;52.246;14.408;2023-05-10T03:15:42;12.23;;;5.30;;
44508;SDS011;30214;52.246;14.408;2023-05-10T03:18:21;9.27;;;4.82;;
44508;SDS011;30214;52.246;14.408;2023-05-10T03:20:55;13.60;;;5.25;;
44508;SDS011;30214;52.246;14.408;2023-05-10T03:23:27;11.40;;;4.80;;
44508;SDS011;30214;52.246;14.408;2023-05-10T03:26:00;10.75;;;4.63;;
44508;SDS011;30214;52.246;14.408;2023-05-10T03:28:29;13.90;;;4.97;;
44508;SDS011;30214;52.246;14.408;2023-05-10T03:30:57;12.70;;;5.20;;
44508;SDS011;30214;52.246;14.408;2023-05-10T03:33:26;9.48;;;4.80;;
44508;SDS011;30214;52.246;14.408;2023-05-10T03:35:55;8.65;;;4.68;;
44508;SDS011;30214;52.246;14.408;2023-05-10T03:38:22;7.95;;;4.63;;
44508;SDS011;30214;52.246;14.408;2023-05-10T03:40:49;12.40;;;4.90;;
44508;SDS011;30214;52.246;14.408;2023-05-10T03:43:16;6.90;;;4.20;;
44508;SDS011;30214;52.246;14.408;2023-05-10T03:45:43;7.80;;;4.60;;
44508;SDS011;30214;52.246;14.408;2023-05-10T03:48:10;9.20;;;4.50;;
44508;SDS011;30214;52.246;14.408;2023-05-10T03:50:40;8.57;;;4.60;;
44508;SDS011;30214;52.246;14.408;2023-05-10T03:53:09;13.77;;;4.55;;
44508;SDS011;30214;52.246;14.408;2023-05-10T03:55:36;8.90;;;4.40;;
44508;SDS011;30214;52.246;14.408;2023-05-10T03:58:03;9.63;;;3.97;;
44508;SDS011;30214;52.246;14.408;2023-05-10T04:00:31;11.95;;;4.68;;
44508;SDS011;30214;52.246;14.408;2023-05-10T04:02:59;10.23;;;4.30;;
44508;SDS011;30214;52.246;14.408;2023-05-10T04:05:26;9.30;;;4.50;;
44508;SDS011;30214;52.246;14.408;2023-05-10T04:07:53;9.60;;;4.03;;
44508;SDS011;30214;52.246;14.408;2023-05-10T04:10:22;10.18;;;4.50;;
44508;SDS011;30214;52.246;14.408;2023-05-10T04:12:49;9.07;;;4.25;;
44508;SDS011;30214;52.246;14.408;2023-05-10T04:15:16;9.23;;;4.38;;
44508;SDS011;30214;52.246;14.408;2023-05-10T04:17:43;6.65;;;4.20;;
44508;SDS011;30214;52.246;14.408;2023-05-10T04:20:11;7.32;;;4.10;;
44508;SDS011;30214;52.246;14.408;2023-05-10T04:22:39;8.32;;;4.72;;
44508;SDS011;30214;52.246;14.408;2023-05-10T04:25:06;9.95;;;3.85;;
44508;SDS011;30214;52.246;14.408;2023-05-10T04:27:36;6.45;;;3.92;;
44508;SDS011;30214;52.246;14.408;2023-05-10T04:30:03;7.07;;;4.38;;
44508;SDS011;30214;52.246;14.408;2023-05-10T04:32:32;6.47;;;3.83;;
44508;SDS011;30214;52.246;14.408;2023-05-10T04:34:59;6.18;;;3.78;;
44508;SDS011;30214;52.246;14.408;2023-05-10T04:37:28;6.93;;;4.20;;
44508;SDS011;30214;52.246;14.408;2023-05-10T04:39:55;5.80;;;3.80;;
44508;SDS011;30214;52.246;14.408;2023-05-10T04:42:22;7.35;;;4.00;;
44508;SDS011;30214;52.246;14.408;2023-05-10T04:44:50;6.25;;;3.95;;
44508;SDS011;30214;52.246;14.408;2023-05-10T04:47:18;8.50;;;4.10;;
44508;SDS011;30214;52.246;14.408;2023-05-10T04:49:45;7.32;;;3.72;;
44508;SDS011;30214;52.246;14.408;2023-05-10T04:52:12;9.05;;;3.80;;
44508;SDS011;30214;52.246;14.408;2023-05-10T04:54:40;6.47;;;4.25;;
44508;SDS011;30214;52.246;14.408;2023-05-10T04:57:10;9.57;;;4.20;;
44508;SDS011;30214;52.246;14.408;2023-05-10T04:59:37;6.85;;;3.47;;
44508;SDS011;30214;52.246;14.408;2023-05-10T05:02:06;8.20;;;4.18;;
44508;SDS011;30214;52.246;14.408;2023-05-10T05:04:34;6.40;;;3.80;;
44508;SDS011;30214;52.246;14.408;2023-05-10T05:07:01;6.28;;;3.70;;
44508;SDS011;30214;52.246;14.408;2023-05-10T05:09:28;9.20;;;3.97;;
44508;SDS011;30214;52.246;14.408;2023-05-10T05:11:57;7.50;;;4.10;;
44508;SDS011;30214;52.246;14.408;2023-05-10T05:14:24;8.32;;;4.25;;
44508;SDS011;30214;52.246;14.408;2023-05-10T05:16:51;11.13;;;3.85;;
44508;SDS011;30214;52.246;14.408;2023-05-10T05:19:20;6.40;;;3.97;;
44508;SDS011;30214;52.246;14.408;2023-05-10T05:21:47;7.25;;;3.70;;
44508;SDS011;30214;52.246;14.408;2023-05-10T05:24:14;8.52;;;3.55;;
44508;SDS011;30214;52.246;14.408;2023-05-10T05:26:41;7.15;;;3.70;;
44508;SDS011;30214;52.246;14.408;2023-05-10T05:29:08;9.00;;;3.55;;
44508;SDS011;30214;52.246;14.408;2023-05-10T05:31:36;6.90;;;4.22;;
44508;SDS011;30214;52.246;14.408;2023-05-10T05:34:03;6.68;;;3.45;;
44508;SDS011;30214;52.246;14.408;2023-05-10T05:36:32;6.22;;;3.70;;
44508;SDS011;30214;52.246;14.408;2023-05-10T05:39:03;7.72;;;3.65;;
44508;SDS011;30214;52.246;14.408;2023-05-10T05:41:30;6.20;;;3.40;;
44508;SDS011;30214;52.246;14.408;2023-05-10T05:43:57;7.80;;;3.47;;
44508;SDS011;30214;52.246;14.408;2023-05-10T05:46:24;7.10;;;3.83;;
44508;SDS011;30214;52.246;14.408;2023-05-10T05:48:51;6.38;;;3.38;;
44508;SDS011;30214;52.246;14.408;2023-05-10T05:51:18;8.20;;;3.75;;
44508;SDS011;30214;52.246;14.408;2023-05-10T05:53:47;9.45;;;3.40;;
44508;SDS011;30214;52.246;14.408;2023-05-10T05:56:14;9.32;;;3.67;;
44508;SDS011;30214;52.246;14.408;2023-05-10T05:58:42;4.95;;;3.10;;
44508;SDS011;30214;52.246;14.408;2023-05-10T06:01:09;4.97;;;3.25;;
44508;SDS011;30214;52.246;14.408;2023-05-10T06:03:36;10.32;;;3.10;;
44508;SDS011;30214;52.246;14.408;2023-05-10T06:06:04;9.25;;;3.45;;
44508;SDS011;30214;52.246;14.408;2023-05-10T06:08:31;5.57;;;3.05;;
44508;SDS011;30214;52.246;14.408;2023-05-10T06:11:00;7.45;;;3.30;;
44508;SDS011;30214;52.246;14.408;2023-05-10T06:13:29;5.45;;;2.92;;
44508;SDS011;30214;52.246;14.408;2023-05-10T06:15:57;6.35;;;3.05;;
44508;SDS011;30214;52.246;14.408;2023-05-10T06:18:24;6.95;;;3.10;;
44508;SDS011;30214;52.246;14.408;2023-05-10T06:20:51;6.55;;;2.90;;
44508;SDS011;30214;52.246;14.408;2023-05-10T06:23:18;6.82;;;3.38;;
44508;SDS011;30214;52.246;14.408;2023-05-10T06:25:45;6.43;;;3.10;;
44508;SDS011;30214;52.246;14.408;2023-05-10T06:28:14;4.88;;;3.00;;
44508;SDS011;30214;52.246;14.408;2023-05-10T06:30:41;5.00;;;2.85;;
44508;SDS011;30214;52.246;14.408;2023-05-10T06:33:08;5.13;;;3.00;;
44508;SDS011;30214;52.246;14.408;2023-05-10T06:35:35;8.18;;;2.65;;
44508;SDS011;30214;52.246;14.408;2023-05-10T06:38:02;6.97;;;2.85;;
44508;SDS011;30214;52.246;14.408;2023-05-10T06:40:29;5.88;;;2.78;;
44508;SDS011;30214;52.246;14.408;2023-05-10T06:42:56;7.03;;;2.80;;
44508;SDS011;30214;52.246;14.408;2023-05-10T06:45:25;5.88;;;2.90;;
44508;SDS011;30214;52.246;14.408;2023-05-10T06:47:52;5.13;;;2.72;;
44508;SDS011;30214;52.246;14.408;2023-05-10T06:50:19;5.78;;;3.00;;
44508;SDS011;30214;52.246;14.408;2023-05-10T06:52:47;7.43;;;3.03;;
44508;SDS011;30214;52.246;14.408;2023-05-10T06:55:14;6.82;;;3.20;;
44508;SDS011;30214;52.246;14.408;2023-05-10T06:57:41;5.10;;;2.97;;
44508;SDS011;30214;52.246;14.408;2023-05-10T07:00:08;5.30;;;2.55;;
44508;SDS011;30214;52.246;14.408;2023-05-10T07:02:37;7.65;;;2.70;;
44508;SDS011;30214;52.246;14.408;2023-05-10T07:05:04;5.97;;;2.72;;
44508;SDS011;30214;52.246;14.408;2023-05-10T07:07:32;7.43;;;2.95;;
44508;SDS011;30214;52.246;14.408;2023-05-10T07:09:59;5.78;;;2.67;;
44508;SDS011;30214;52.246;14.408;2023-05-10T07:12:26;10.15;;;2.80;;
44508;SDS011;30214;52.246;14.408;2023-05-10T07:14:53;6.80;;;2.40;;
44508;SDS011;30214;52.246;14.408;2023-05-10T07:17:20;5.72;;;2.38;;
44508;SDS011;30214;52.246;14.408;2023-05-10T07:19:49;3.67;;;2.40;;
44508;SDS011;30214;52.246;14.408;2023-05-10T07:22:16;7.90;;;2.70;;
44508;SDS011;30214;52.246;14.408;2023-05-10T07:24:43;3.88;;;2.45;;
44508;SDS011;30214;52.246;14.408;2023-05-10T07:27:10;5.90;;;2.40;;
44508;SDS011;30214;52.246;14.408;2023-05-10T07:29:38;12.20;;;2.65;;
44508;SDS011;30214;52.246;14.408;2023-05-10T07:32:05;6.47;;;2.60;;
44508;SDS011;30214;52.246;14.408;2023-05-10T07:34:32;10.32;;;2.28;;
44508;SDS011;30214;52.246;14.408;2023-05-10T07:37:01;5.50;;;2.45;;
44508;SDS011;30214;52.246;14.408;2023-05-10T07:39:28;6.47;;;2.30;;
44508;SDS011;30214;52.246;14.408;2023-05-10T07:41:55;10.38;;;2.30;;
44508;SDS011;30214;52.246;14.408;2023-05-10T07:44:22;9.70;;;2.67;;
44508;SDS011;30214;52.246;14.408;2023-05-10T07:46:50;7.85;;;2.33;;
44508;SDS011;30214;52.246;14.408;2023-05-10T07:49:17;8.60;;;2.33;;
44508;SDS011;30214;52.246;14.408;2023-05-10T07:51:44;3.80;;;2.30;;
44508;SDS011;30214;52.246;14.408;2023-05-10T07:54:13;4.70;;;2.35;;
44508;SDS011;30214;52.246;14.408;2023-05-10T07:56:40;3.95;;;2.30;;
44508;SDS011;30214;52.246;14.408;2023-05-10T07:59:14;4.13;;;2.35;;
44508;SDS011;30214;52.246;14.408;2023-05-10T08:01:42;6.82;;;2.15;;
44508;SDS011;30214;52.246;14.408;2023-05-10T08:04:11;4.78;;;2.15;;
44508;SDS011;30214;52.246;14.408;2023-05-10T08:06:38;4.30;;;2.15;;
44508;SDS011;30214;52.246;14.408;2023-05-10T08:09:06;8.00;;;2.25;;
44508;SDS011;30214;52.246;14.408;2023-05-10T08:11:35;5.38;;;2.60;;
44508;SDS011;30214;52.246;14.408;2023-05-10T08:14:02;4.40;;;2.50;;
44508;SDS011;30214;52.246;14.408;2023-05-10T08:16:29;5.25;;;2.00;;
44508;SDS011;30214;52.246;14.408;2023-05-10T08:18:57;6.45;;;2.10;;
44508;SDS011;30214;52.246;14.408;2023-05-10T08:21:25;3.40;;;1.98;;
44508;SDS011;30214;52.246;14.408;2023-05-10T08:23:52;4.93;;;2.10;;
44508;SDS011;30214;52.246;14.408;2023-05-10T08:26:20;4.22;;;2.10;;
44508;SDS011;30214;52.246;14.408;2023-05-10T08:28:48;6.65;;;2.33;;
44508;SDS011;30214;52.246;14.408;2023-05-10T08:31:15;5.38;;;2.15;;
44508;SDS011;30214;52.246;14.408;2023-05-10T08:33:43;5.13;;;2.30;;
44508;SDS011;30214;52.246;14.408;2023-05-10T08:36:10;10.15;;;2.17;;
44508;SDS011;30214;52.246;14.408;2023-05-10T08:38:39;4.95;;;2.20;;
44508;SDS011;30214;52.246;14.408;2023-05-10T08:41:06;5.25;;;2.10;;
44508;SDS011;30214;52.246;14.408;2023-05-10T08:43:33;5.50;;;2.10;;
44508;SDS011;30214;52.246;14.408;2023-05-10T08:46:05;4.20;;;2.33;;
44508;SDS011;30214;52.246;14.408;2023-05-10T08:48:35;5.72;;;3.15;;
44508;SDS011;30214;52.246;14.408;2023-05-10T08:51:08;4.47;;;2.30;;
44508;SDS011;30214;52.246;14.408;2023-05-10T08:53:39;10.15;;;2.40;;
44508;SDS011;30214;52.246;14.408;2023-05-10T08:56:07;3.80;;;2.38;;
44508;SDS011;30214;52.246;14.408;2023-05-10T08:58:34;6.70;;;2.22;;
44508;SDS011;30214;52.246;14.408;2023-05-10T09:01:04;4.88;;;2.17;;
44508;SDS011;30214;52.246;14.408;2023-05-10T09:03:32;3.35;;;2.15;;
44508;SDS011;30214;52.246;14.408;2023-05-10T09:05:59;5.88;;;2.30;;
44508;SDS011;30214;52.246;14.408;2023-05-10T09:08:26;4.32;;;2.00;;
44508;SDS011;30214;52.246;14.408;2023-05-10T09:10:54;4.57;;;2.60;;
44508;SDS011;30214;52.246;14.408;2023-05-10T09:13:21;8.30;;;1.95;;
44508;SDS011;30214;52.246;14.408;2023-05-10T09:15:49;5.13;;;2.05;;
44508;SDS011;30214;52.246;14.408;2023-05-10T09:18:19;3.47;;;1.80;;
44508;SDS011;30214;52.246;14.408;2023-05-10T09:20:46;3.60;;;2.05;;
44508;SDS011;30214;52.246;14.408;2023-05-10T09:23:14;4.40;;;1.90;;
44508;SDS011;30214;52.246;14.408;2023-05-10T09:25:41;3.47;;;1.60;;
44508;SDS011;30214;52.246;14.408;2023-05-10T09:28:10;4.47;;;1.95;;
44508;SDS011;30214;52.246;14.408;2023-05-10T09:30:38;3.92;;;1.80;;
44508;SDS011;30214;52.246;14.408;2023-05-10T09:33:05;3.40;;;2.00;;
44508;SDS011;30214;52.246;14.408;2023-05-10T09:35:34;5.15;;;1.88;;
44508;SDS011;30214;52.246;14.408;2023-05-10T09:38:02;7.68;;;1.95;;
44508;SDS011;30214;52.246;14.408;2023-05-10T09:40:31;3.78;;;1.88;;
44508;SDS011;30214;52.246;14.408;2023-05-10T09:43:00;3.72;;;1.90;;
44508;SDS011;30214;52.246;14.408;2023-05-10T09:45:29;5.68;;;2.05;;
44508;SDS011;30214;52.246;14.408;2023-05-10T09:47:58;3.08;;;1.80;;
44508;SDS011;30214;52.246;14.408;2023-05-10T09:50:27;3.78;;;1.92;;
44508;SDS011;30214;52.246;14.408;2023-05-10T09:52:56;8.77;;;1.92;;
44508;SDS011;30214;52.246;14.408;2023-05-10T09:55:26;4.20;;;2.03;;
44508;SDS011;30214;52.246;14.408;2023-05-10T09:58:05;3.50;;;1.90;;
44508;SDS011;30214;52.246;14.408;2023-05-10T10:00:35;3.35;;;1.90;;
44508;SDS011;30214;52.246;14.408;2023-05-10T10:03:04;3.67;;;1.80;;
44508;SDS011;30214;52.246;14.408;2023-05-10T10:05:39;4.38;;;1.90;;
44508;SDS011;30214;52.246;14.408;2023-05-10T10:08:09;4.85;;;2.20;;
44508;SDS011;30214;52.246;14.408;2023-05-10T10:10:37;3.45;;;1.77;;
44508;SDS011;30214;52.246;14.408;2023-05-10T10:13:05;5.47;;;1.90;;
44508;SDS011;30214;52.246;14.408;2023-05-10T10:15:33;4.38;;;2.00;;
44508;SDS011;30214;52.246;14.408;2023-05-10T10:18:04;3.95;;;1.85;;
44508;SDS011;30214;52.246;14.408;2023-05-10T10:20:31;6.57;;;2.10;;
44508;SDS011;30214;52.246;14.408;2023-05-10T10:22:58;4.00;;;1.80;;
44508;SDS011;30214;52.246;14.408;2023-05-10T10:25:27;6.65;;;1.88;;
44508;SDS011;30214;52.246;14.408;2023-05-10T10:27:58;4.60;;;2.15;;
44508;SDS011;30214;52.246;14.408;2023-05-10T10:30:39;7.60;;;1.90;;
44508;SDS011;30214;52.246;14.408;2023-05-10T10:33:17;3.78;;;1.80;;
44508;SDS011;30214;52.246;14.408;2023-05-10T10:36:01;4.30;;;1.80;;
44508;SDS011;30214;52.246;14.408;2023-05-10T10:38:36;4.72;;;2.10;;
44508;SDS011;30214;52.246;14.408;2023-05-10T10:41:11;4.07;;;1.90;;
44508;SDS011;30214;52.246;14.408;2023-05-10T10:47:01;6.70;;;1.80;;
44508;SDS011;30214;52.246;14.408;2023-05-10T10:49:43;3.58;;;1.95;;
44508;SDS011;30214;52.246;14.408;2023-05-10T10:52:23;4.13;;;1.50;;
44508;SDS011;30214;52.246;14.408;2023-05-10T10:54:58;5.28;;;2.25;;
44508;SDS011;30214;52.246;14.408;2023-05-10T10:57:32;5.70;;;1.98;;
44508;SDS011;30214;52.246;14.408;2023-05-10T11:00:28;6.07;;;1.80;;
44508;SDS011;30214;52.246;14.408;2023-05-10T11:02:57;4.35;;;1.90;;
44508;SDS011;30214;52.246;14.408;2023-05-10T11:05:36;6.13;;;2.10;;
44508;SDS011;30214;52.246;14.408;2023-05-10T11:08:07;4.88;;;1.92;;
44508;SDS011;30214;52.246;14.408;2023-05-10T11:10:50;4.32;;;1.85;;
44508;SDS011;30214;52.246;14.408;2023-05-10T11:13:29;4.72;;;1.90;;
44508;SDS011;30214;52.246;14.408;2023-05-10T11:15:58;4.97;;;2.08;;
44508;SDS011;30214;52.246;14.408;2023-05-10T11:18:36;7.68;;;1.90;;
44508;SDS011;30214;52.246;14.408;2023-05-10T11:21:04;3.42;;;2.00;;
44508;SDS011;30214;52.246;14.408;2023-05-10T11:23:31;3.38;;;1.90;;
44508;SDS011;30214;52.246;14.408;2023-05-10T11:26:13;3.85;;;1.85;;
44508;SDS011;30214;52.246;14.408;2023-05-10T11:28:42;4.97;;;2.10;;
44508;SDS011;30214;52.246;14.408;2023-05-10T11:31:10;5.43;;;1.80;;
44508;SDS011;30214;52.246;14.408;2023-05-10T11:33:42;3.97;;;1.98;;
44508;SDS011;30214;52.246;14.408;2023-05-10T11:36:10;6.60;;;2.03;;
44508;SDS011;30214;52.246;14.408;2023-05-10T11:38:38;4.10;;;1.90;;
44508;SDS011;30214;52.246;14.408;2023-05-10T11:41:05;7.95;;;2.17;;
44508;SDS011;30214;52.246;14.408;2023-05-10T11:43:36;7.93;;;2.30;;
44508;SDS011;30214;52.246;14.408;2023-05-10T11:46:09;6.85;;;2.20;;
44508;SDS011;30214;52.246;14.408;2023-05-10T11:48:39;9.63;;;2.30;;
44508;SDS011;30214;52.246;14.408;2023-05-10T11:51:07;4.22;;;2.28;;
44508;SDS011;30214;52.246;14.408;2023-05-10T11:53:35;5.28;;;2.10;;
44508;SDS011;30214;52.246;14.408;2023-05-10T11:56:03;4.90;;;2.13;;
44508;SDS011;30214;52.246;14.408;2023-05-10T11:58:31;7.85;;;1.80;;
44508;SDS011;30214;52.246;14.408;2023-05-10T12:00:59;5.93;;;2.00;;
44508;SDS011;30214;52.246;14.408;2023-05-10T12:03:28;4.07;;;2.00;;
44508;SDS011;30214;52.246;14.408;2023-05-10T12:05:56;5.63;;;1.95;;
44508;SDS011;30214;52.246;14.408;2023-05-10T12:08:25;4.40;;;2.10;;
44508;SDS011;30214;52.246;14.408;2023-05-10T12:11:03;5.63;;;1.90;;
44508;SDS011;30214;52.246;14.408;2023-05-10T12:13:32;4.18;;;1.90;;
44508;SDS011;30214;52.246;14.408;2023-05-10T12:16:07;5.10;;;1.98;;
44508;SDS011;30214;52.246;14.408;2023-05-10T12:18:41;5.70;;;1.95;;
44508;SDS011;30214;52.246;14.408;2023-05-10T12:21:09;5.85;;;2.15;;
44508;SDS011;30214;52.246;14.408;2023-05-10T12:23:37;6.47;;;2.20;;
44508;SDS011;30214;52.246;14.408;2023-05-10T12:26:05;8.90;;;1.90;;
44508;SDS011;30214;52.246;14.408;2023-05-10T12:28:33;7.50;;;2.10;;
44508;SDS011;30214;52.246;14.408;2023-05-10T12:31:00;4.57;;;2.00;;
44508;SDS011;30214;52.246;14.408;2023-05-10T12:33:34;4.15;;;2.03;;
44508;SDS011;30214;52.246;14.408;2023-05-10T12:36:06;5.38;;;1.95;;
44508;SDS011;30214;52.246;14.408;2023-05-10T12:38:34;5.45;;;2.03;;
44508;SDS011;30214;52.246;14.408;2023-05-10T12:41:04;4.55;;;2.03;;
44508;SDS011;30214;52.246;14.408;2023-05-10T12:43:33;3.63;;;2.05;;
44508;SDS011;30214;52.246;14.408;2023-05-10T12:46:04;4.72;;;2.17;;
44508;SDS011;30214;52.246;14.408;2023-05-10T12:48:33;5.10;;;2.03;;
44508;SDS011;30214;52.246;14.408;2023-05-10T12:51:01;7.28;;;2.05;;
44508;SDS011;30214;52.246;14.408;2023-05-10T12:53:30;4.78;;;1.92;;
44508;SDS011;30214;52.246;14.408;2023-05-10T12:55:57;6.95;;;2.10;;
44508;SDS011;30214;52.246;14.408;2023-05-10T12:58:24;5.38;;;1.77;;
44508;SDS011;30214;52.246;14.408;2023-05-10T13:00:51;2.83;;;1.73;;
44508;SDS011;30214;52.246;14.408;2023-05-10T13:03:19;13.65;;;2.05;;
44508;SDS011;30214;52.246;14.408;2023-05-10T13:05:46;3.15;;;1.95;;
44508;SDS011;30214;52.246;14.408;2023-05-10T13:08:13;4.60;;;1.90;;
44508;SDS011;30214;52.246;14.408;2023-05-10T13:10:41;5.18;;;1.98;;
44508;SDS011;30214;52.246;14.408;2023-05-10T13:13:09;7.28;;;2.30;;
44508;SDS011;30214;52.246;14.408;2023-05-10T13:15:36;6.28;;;2.10;;
44508;SDS011;30214;52.246;14.408;2023-05-10T13:18:03;3.30;;;1.75;;
44508;SDS011;30214;52.246;14.408;2023-05-10T13:20:30;4.07;;;1.85;;
44508;SDS011;30214;52.246;14.408;2023-05-10T13:23:00;5.25;;;2.08;;
44508;SDS011;30214;52.246;14.408;2023-05-10T13:25:34;5.85;;;2.05;;
44508;SDS011;30214;52.246;14.408;2023-05-10T13:28:06;7.18;;;3.03;;
44508;SDS011;30214;52.246;14.408;2023-05-10T13:30:39;5.93;;;1.80;;
44508;SDS011;30214;52.246;14.408;2023-05-10T13:33:12;3.40;;;1.70;;
44508;SDS011;30214;52.246;14.408;2023-05-10T13:35:40;4.80;;;1.90;;
44508;SDS011;30214;52.246;14.408;2023-05-10T13:38:09;3.85;;;2.05;;
44508;SDS011;30214;52.246;14.408;2023-05-10T13:40:36;5.00;;;2.03;;
44508;SDS011;30214;52.246;14.408;2023-05-10T13:43:03;4.72;;;2.22;;
44508;SDS011;30214;52.246;14.408;2023-05-10T13:45:31;5.35;;;2.00;;
44508;SDS011;30214;52.246;14.408;2023-05-10T13:47:58;7.18;;;2.10;;
44508;SDS011;30214;52.246;14.408;2023-05-10T13:50:26;7.97;;;1.98;;
44508;SDS011;30214;52.246;14.408;2023-05-10T13:52:54;3.83;;;2.55;;
44508;SDS011;30214;52.246;14.408;2023-05-10T13:55:21;4.32;;;2.10;;
44508;SDS011;30214;52.246;14.408;2023-05-10T13:57:49;5.28;;;1.92;;
44508;SDS011;30214;52.246;14.408;2023-05-10T14:00:16;2.70;;;1.90;;
44508;SDS011;30214;52.246;14.408;2023-05-10T14:02:45;3.22;;;2.05;;
44508;SDS011;30214;52.246;14.408;2023-05-10T14:05:12;3.47;;;2.03;;
44508;SDS011;30214;52.246;14.408;2023-05-10T14:07:40;4.60;;;2.00;;
44508;SDS011;30214;52.246;14.408;2023-05-10T14:10:09;4.55;;;2.13;;
44508;SDS011;30214;52.246;14.408;2023-05-10T14:12:36;4.07;;;1.90;;
44508;SDS011;30214;52.246;14.408;2023-05-10T14:15:06;5.78;;;1.83;;
44508;SDS011;30214;52.246;14.408;2023-05-10T14:17:37;4.43;;;2.00;;
44508;SDS011;30214;52.246;14.408;2023-05-10T14:20:07;5.47;;;2.00;;
44508;SDS011;30214;52.246;14.408;2023-05-10T14:22:36;5.13;;;1.95;;
44508;SDS011;30214;52.246;14.408;2023-05-10T14:25:07;4.85;;;2.08;;
44508;SDS011;30214;52.246;14.408;2023-05-10T14:27:36;8.55;;;1.90;;
44508;SDS011;30214;52.246;14.408;2023-05-10T14:30:05;5.28;;;1.98;;
44508;SDS011;30214;52.246;14.408;2023-05-10T14:32:34;6.35;;;1.90;;
44508;SDS011;30214;52.246;14.408;2023-05-10T14:35:07;7.43;;;1.80;;
44508;SDS011;30214;52.246;14.408;2023-05-10T14:37:35;6.97;;;1.95;;
44508;SDS011;30214;52.246;14.408;2023-05-10T14:40:04;3.25;;;2.00;;
44508;SDS011;30214;52.246;14.408;2023-05-10T14:42:32;4.72;;;1.67;;
44508;SDS011;30214;52.246;14.408;2023-05-10T14:45:00;6.07;;;2.25;;
44508;SDS011;30214;52.246;14.408;2023-05-10T14:47:27;4.25;;;1.90;;
44508;SDS011;30214;52.246;14.408;2023-05-10T14:49:56;5.63;;;2.08;;
44508;SDS011;30214;52.246;14.408;2023-05-10T14:52:26;4.63;;;1.92;;